Aeroporto :
LOGIN :

Iscrizione | Disclaimer

   EN    FR    IT 

 










Sommario :    VFR   VFR Marginale   IFR   IFR Intensivo   IFR Molto Intensivo
Visibilità : 
Base nubi : 
>= 8 km
>= 3000ft
5 / 8 km
1000 / 3000 ft
1500m / 5 km
500 / 1000 ft
800 / 1500m
200 / 500 ft
< 800m
< 200 ft
Simboli :   Temporali  Nebbia  Neve Forte  Precipitazioni Forti  Vento > 20 kt
SIGMETs :   Varie  Temporali  Ghiacco  Turbolenza  Onda orograficha  Ceneri Vulcaniche






- Altitudine del aeroporto : 3 ft
- Codice IATA : LWR


EHLW - Leuuwarden Air Base

ULTIMO METAR :
  • 221159Z AUTO 33007KT 280V360 9999 FEW006 BKN008 OVC010 08/07 Q1035 GRN 33005KT 9999 BKN008 TEMPO BKN013 RMK R23

METARs OBSOLETI :
  • 221125Z AUTO 32007KT 290V350 9999 FEW005 SCT006 BKN007 08/07 Q1035 YLO 33005KT 9999 BKN008 TEMPO BKN013 RMK R23
  • 221055Z AUTO 33008KT 280V360 9999 SCT007 OVC008 08/07 Q1036 GRN 33005KT 9999 BKN008 TEMPO BKN013 RMK R23
  • 221037Z AUTO 33006KT 310V010 9999 SCT007 BKN009 OVC010 08/07 Q1036 GRN 33005KT 9999 BKN008 TEMPO BKN013 RMK R23
  • 221025Z AUTO 34005KT 310V010 9999 FEW008 BKN010 OVC012 08/07 Q1035 GRN 33005KT 9999 BKN008 TEMPO BKN013 RMK R23
  • 221017Z AUTO 34005KT 290V360 9999 FEW007 SCT008 OVC009 08/07 Q1036 GRN 33005KT 9999 BKN008 TEMPO BKN013 RMK R23
  • 220955Z AUTO 33005KT 290V020 9999 FEW009 BKN011 OVC013 08/07 Q1036 GRN 33005KT 9999 BKN008 TEMPO BKN013 RMK R23
  • 220950Z AUTO 32006KT 290V360 9999 OVC010 08/07 Q1036 GRN 32004KT 9999 BKN008 TEMPO BKN010 RMK R23
  • 220927Z AUTO 32004KT 280V340 9999 BKN009 OVC010 08/07 Q1036 GRN 32004KT 9999 BKN008 TEMPO BKN010 RMK R23
  • 220908Z AUTO 32004KT 290V350 9999 BKN009 OVC010 08/07 Q1035 GRN 32005KT 9999 FEW003 BKN010 TEMPO 3000 BR SCT002 BKN003 RMK R23

TAF TAF EHLW
Valido dal 22 a 10 ore il 22 a 22 ore UTC


220953Z 2210/2222 VRB03KT 6000 FEW002 BKN010
PROB40
TEMPO 2210/2217 4500 BR SCT003 BKN006
BECMG 2217/2220 0800 FG NSC



MetMap, La meteo Aeronautica in un colpo d'occhio ! - Copyright ORBIFLY Dicembre 2007 - Disclaimer

ORBIFLY MET'MAP TEAM :

Programmazione e sviluppo : Alexandra Zaïnal
Concezione : Baudouin d'Aumeries
Aiuto per la programmazione : Marc-Olivier Méhu
Supporto tecnico e logistico : Manuel Goepfert
Aiuto per la traduzione : Arnaldo La Scala

Contatto : metmap@orbifly.com




FONTI E CREDITI :

   NOAA